Portada
METAR-TAF:

METAR-TAF

Aeroports :

Mysore, Índia

latitud: 12-13-48N, longitud: 76-39-21E, altitud: 715 m

Observació

L'informe es va fer fa 1 hora i 6 minuts, a les 11:30 UTC
Vent 5 kt del Sud-Oest
Temperatura 35°C
Humitat 44%
Pressió 1010 hPa
Visibilitat 10 km o més
Núvols disperses a una alçada de 1500 ft

METAR: VOMY 251130Z 23005KT 9999 SCT015 35/21 Q1010

Hora: 18:06 (12:36 UTC)

Pronòstic

L'informe es va fer fa 4 hores i 36 minuts, a les 08:00 UTC
Pronòstic vàlid del 25 a les 09 UTC al 25 a les 18 UTC
Vent 10 kt del Oest
Visibilitat: 8000 m
Núvols disperses a una alçada de 1500 ft
Temporalment
l' 25 a les 12 UTC al 25 a les 15 UTC
Visibilitat: 5000 m
Núvols disperses a una alçada de 1500 ft
Núvols disperses a una alçada de 2000 ft
Escasses núvols a una alçada de 2500 ft, Cumulonimbus.
Cel ennuvolat a una alçada de 8000 ft
tempesta, pluja, pluja

TAF: VOMY 250800Z 2509/2518 27010KT 8000 SCT015 TEMPO 2512/2515 5000 -TSRA RA SCT015 SCT020 FEW025CB BKN080

Observacions i pronòstics meteorològics de més de 4000 aeroports (METAR i TAF).

Les estacions disponibles són els punts grocs i vermells al mapa.

Posi el ratolí al punt desitjat per veure el nom de l'estació.

Feu clic per veure les observacions i els pronòstics meteorològics.

Per canviar el mapa: feu clic els botons verds amb una creu de color negre per apropar; al botó verd amb un guió per allunyar la imatge; o en les fletxes verdes per a mapes adjacents.


METAR-TAF: